Time;durP1;ratioP1;P1;durP2;ratioP2;P2;SDS_P1;SDS_P2;PMS_P1;PMS_P2;Temp;Humidity;BMP_temperature;BMP_pressure;BME280_temperature;BME280_humidity;BME280_pressure;Samples;Min_cycle;Max_cycle;Signal;HPM_P1;HPM_P2
2022/03/08 00:02:11;;;;;;;7.03;3.33;;;3.70;99.90;;;;;;20552625;28;20038;-47
2022/03/08 00:12:13;;;;;;;5.00;1.92;;;3.50;99.90;;;;;;20551794;28;20267;-47
2022/03/08 00:22:14;;;;;;;7.40;2.13;;;3.30;99.90;;;;;;20543750;28;20047;-46
2022/03/08 00:32:15;;;;;;;6.75;2.63;;;3.30;99.90;;;;;;20505468;28;20031;-47
2022/03/08 00:42:16;;;;;;;5.68;1.88;;;3.10;99.90;;;;;;20522579;28;20051;-46
2022/03/08 00:52:19;;;;;;;6.80;2.30;;;2.90;99.90;;;;;;20538402;28;20594;-46
2022/03/08 01:02:20;;;;;;;6.20;2.50;;;3.00;99.90;;;;;;20558575;28;20370;-46
2022/03/08 01:12:21;;;;;;;7.63;2.63;;;2.90;99.90;;;;;;20527426;28;20054;-47
2022/03/08 01:22:23;;;;;;;4.68;1.67;;;3.00;99.90;;;;;;20483175;28;20261;-48
2022/03/08 01:32:24;;;;;;;4.30;1.73;;;3.00;99.90;;;;;;20507797;28;20059;-47
2022/03/08 01:42:26;;;;;;;5.65;1.67;;;3.00;99.90;;;;;;20539811;28;20047;-46
2022/03/08 01:52:27;;;;;;;4.35;1.60;;;3.00;99.90;;;;;;20589287;28;20038;-47
2022/03/08 02:02:28;;;;;;;2.70;1.20;;;2.90;99.90;;;;;;20581356;28;20058;-46
2022/03/08 02:12:32;;;;;;;4.40;1.30;;;2.90;99.90;;;;;;20623132;28;20302;-47
2022/03/08 02:22:33;;;;;;;2.55;1.13;;;3.00;99.90;;;;;;20612656;28;20038;-46
2022/03/08 02:32:34;;;;;;;6.72;1.23;;;3.10;99.90;;;;;;20606758;28;20046;-46
2022/03/08 02:42:35;;;;;;;8.85;1.40;;;3.20;99.90;;;;;;20576040;28;20039;-46
2022/03/08 02:52:39;;;;;;;3.28;1.25;;;3.30;99.90;;;;;;20553679;28;20068;-46
2022/03/08 03:02:40;;;;;;;3.13;1.33;;;3.30;99.90;;;;;;20538321;28;20428;-46
2022/03/08 03:12:41;;;;;;;4.93;1.88;;;3.40;99.90;;;;;;20533151;28;20043;-46
2022/03/08 03:22:43;;;;;;;5.28;1.70;;;3.50;99.90;;;;;;20558177;28;20054;-46
2022/03/08 03:32:45;;;;;;;4.07;1.52;;;3.40;99.90;;;;;;20523914;28;20458;-46
2022/03/08 03:42:46;;;;;;;5.85;1.55;;;3.20;99.90;;;;;;20509751;28;20045;-46
2022/03/08 03:52:47;;;;;;;2.85;1.00;;;3.10;99.90;;;;;;20487552;28;20046;-47
2022/03/08 04:02:51;;;;;;;5.78;1.58;;;3.10;99.90;;;;;;20507647;28;20051;-46
2022/03/08 04:12:52;;;;;;;3.35;1.33;;;2.90;99.90;;;;;;20526836;28;20036;-46
2022/03/08 04:22:53;;;;;;;4.30;1.45;;;2.80;99.90;;;;;;20480410;28;20471;-46
2022/03/08 04:32:54;;;;;;;3.30;1.70;;;2.90;99.90;;;;;;20478129;28;20736;-47
2022/03/08 04:42:56;;;;;;;2.92;0.93;;;2.80;99.90;;;;;;20562970;28;20061;-47
2022/03/08 04:52:57;;;;;;;3.97;1.42;;;2.70;99.90;;;;;;20571468;28;20050;-46
2022/03/08 05:02:59;;;;;;;4.20;1.55;;;2.40;99.90;;;;;;20595686;28;20792;-46
2022/03/08 05:13:00;;;;;;;3.95;1.58;;;2.30;99.90;;;;;;20583233;28;20474;-46
2022/03/08 05:23:01;;;;;;;4.47;1.90;;;2.30;99.90;;;;;;20601135;28;20051;-46
2022/03/08 05:33:02;;;;;;;3.40;1.38;;;2.50;99.90;;;;;;20588390;28;20069;-46
2022/03/08 05:43:03;;;;;;;3.78;1.20;;;2.50;99.90;;;;;;20577481;28;20046;-46
2022/03/08 05:53:05;;;;;;;3.97;1.63;;;2.50;99.90;;;;;;20594813;28;20040;-46
2022/03/08 06:03:06;;;;;;;3.40;1.52;;;2.60;99.90;;;;;;20577919;28;20051;-46
2022/03/08 06:13:07;;;;;;;3.67;1.63;;;2.60;99.90;;;;;;20576413;28;20043;-46
2022/03/08 06:23:08;;;;;;;2.85;1.63;;;2.50;99.90;;;;;;20572247;28;20058;-46
2022/03/08 06:33:10;;;;;;;5.20;2.05;;;2.50;99.90;;;;;;20565155;28;20041;-46
2022/03/08 06:43:11;;;;;;;5.45;1.50;;;2.50;99.90;;;;;;20578460;28;20054;-46
2022/03/08 06:53:12;;;;;;;3.95;1.48;;;2.50;99.90;;;;;;20604409;28;20038;-46
2022/03/08 07:03:13;;;;;;;3.95;1.58;;;2.50;99.90;;;;;;20617001;28;20047;-46
2022/03/08 07:13:15;;;;;;;4.38;1.63;;;2.80;99.90;;;;;;20603662;28;20046;-46
2022/03/08 07:23:16;;;;;;;4.72;2.03;;;3.00;99.90;;;;;;20595519;28;20062;-46
2022/03/08 07:33:17;;;;;;;6.50;2.10;;;3.20;99.90;;;;;;20588881;28;20049;-46
2022/03/08 07:43:19;;;;;;;4.20;1.67;;;3.50;99.90;;;;;;20518697;28;20053;-47
2022/03/08 07:53:20;;;;;;;3.78;1.77;;;3.80;99.90;;;;;;20483229;28;20351;-47
2022/03/08 08:03:22;;;;;;;7.47;1.73;;;4.00;99.90;;;;;;20492737;28;20055;-48
2022/03/08 08:13:23;;;;;;;5.20;1.75;;;4.10;99.90;;;;;;20486102;28;20039;-46
2022/03/08 08:23:24;;;;;;;4.90;1.63;;;4.50;99.90;;;;;;20505826;28;20044;-46
2022/03/08 08:33:26;;;;;;;4.20;1.23;;;4.80;99.90;;;;;;20485153;28;20053;-47
2022/03/08 08:43:27;;;;;;;5.93;2.05;;;4.90;99.90;;;;;;20564714;28;20528;-46
2022/03/08 08:53:28;;;;;;;4.07;1.75;;;5.20;99.90;;;;;;20585865;28;20035;-46
2022/03/08 09:03:29;;;;;;;5.05;1.83;;;5.50;99.10;;;;;;20611983;28;20061;-46
2022/03/08 09:13:30;;;;;;;5.53;2.08;;;5.80;98.60;;;;;;20580707;28;20039;-46
2022/03/08 09:23:32;;;;;;;3.72;1.55;;;6.20;98.00;;;;;;20601569;28;20054;-47
2022/03/08 09:33:33;;;;;;;4.18;1.77;;;6.50;97.90;;;;;;20605857;28;20050;-46
2022/03/08 09:43:37;;;;;;;9.65;2.30;;;6.70;97.60;;;;;;20533251;28;20059;-47
2022/03/08 09:53:39;;;;;;;4.35;1.73;;;6.80;96.20;;;;;;20472067;28;20049;-46
2022/03/08 10:03:43;;;;;;;3.85;1.85;;;6.90;96.10;;;;;;20467276;28;20042;-46
2022/03/08 10:13:50;;;;;;;5.07;2.03;;;7.00;96.00;;;;;;20456632;28;20038;-47
2022/03/08 10:23:52;;;;;;;3.63;1.93;;;7.20;96.20;;;;;;20478246;28;20054;-46
2022/03/08 10:34:04;;;;;;;4.35;2.05;;;7.50;95.20;;;;;;20472604;28;20815;-46
2022/03/08 10:44:05;;;;;;;4.97;2.40;;;7.70;94.70;;;;;;20548279;28;20674;-47
2022/03/08 10:54:15;;;;;;;4.40;1.95;;;8.00;93.60;;;;;;20559731;28;20027;-47
2022/03/08 11:04:21;;;;;;;6.07;1.73;;;8.30;94.30;;;;;;20552548;28;20505;-47
2022/03/08 11:14:22;;;;;;;7.85;2.13;;;8.70;92.50;;;;;;20560502;28;20269;-51
2022/03/08 11:24:24;;;;;;;2.75;1.90;;;9.10;91.60;;;;;;20575008;28;20517;-47
2022/03/08 11:34:35;;;;;;;3.58;1.60;;;9.70;91.30;;;;;;20516399;28;20042;-46
2022/03/08 11:44:37;;;;;;;4.20;2.00;;;10.30;87.50;;;;;;20488034;28;20071;-47
2022/03/08 11:54:38;;;;;;;3.78;1.63;;;10.40;84.10;;;;;;20528100;28;20039;-47
2022/03/08 12:04:44;;;;;;;4.50;1.88;;;10.50;83.40;;;;;;20536339;28;20047;-47
2022/03/08 12:14:49;;;;;;;4.38;2.03;;;11.20;84.30;;;;;;20503469;28;20050;-47
2022/03/08 12:24:57;;;;;;;4.45;2.15;;;11.40;83.80;;;;;;20486448;28;20051;-47
2022/03/08 12:35:08;;;;;;;3.05;1.70;;;11.30;81.60;;;;;;20486042;28;20049;-47
2022/03/08 12:45:20;;;;;;;4.40;2.97;;;11.60;80.00;;;;;;20608980;28;20044;-47
2022/03/08 12:55:28;;;;;;;6.20;2.33;;;12.10;78.20;;;;;;20596571;28;20546;-48
2022/03/08 13:05:31;;;;;;;4.90;1.70;;;12.20;76.80;;;;;;20618151;28;20514;-48
2022/03/08 13:15:33;;;;;;;6.05;1.65;;;12.30;76.60;;;;;;20618068;28;20032;-49
2022/03/08 13:25:34;;;;;;;6.68;1.92;;;12.10;77.40;;;;;;20622029;28;20046;-48
2022/03/08 13:35:41;;;;;;;5.55;2.30;;;12.50;74.70;;;;;;20615200;28;20047;-48
2022/03/08 13:45:43;;;;;;;6.22;2.00;;;12.10;75.10;;;;;;20561540;28;20042;-47
2022/03/08 13:55:45;;;;;;;3.78;1.83;;;12.70;75.70;;;;;;20506530;28;20053;-48
2022/03/08 14:05:49;;;;;;;4.70;2.17;;;13.20;73.90;;;;;;20509924;28;20057;-48
2022/03/08 14:15:54;;;;;;;5.93;2.25;;;12.70;75.10;;;;;;20474945;28;20652;-47
2022/03/08 14:26:00;;;;;;;4.32;1.70;;;13.60;72.70;;;;;;20494859;28;20046;-48
2022/03/08 14:36:01;;;;;;;10.55;2.50;;;13.50;72.10;;;;;;20483657;28;20042;-48
2022/03/08 14:46:03;;;;;;;7.07;2.15;;;13.20;72.00;;;;;;20580089;28;20463;-48
2022/03/08 14:56:04;;;;;;;5.93;2.53;;;12.70;71.30;;;;;;20581110;28;20038;-48
2022/03/08 15:06:05;;;;;;;5.43;1.88;;;12.50;71.80;;;;;;20568350;28;20077;-48
2022/03/08 15:16:07;;;;;;;4.30;2.20;;;12.00;72.80;;;;;;20585403;28;20038;-48
2022/03/08 15:26:08;;;;;;;4.18;1.80;;;11.80;73.60;;;;;;20589002;28;20531;-47
2022/03/08 15:36:10;;;;;;;4.40;2.35;;;11.50;72.80;;;;;;20572259;28;20411;-47
2022/03/08 15:46:14;;;;;;;7.18;2.25;;;11.30;72.80;;;;;;20567038;28;20050;-48
2022/03/08 15:56:17;;;;;;;4.10;2.10;;;11.20;73.70;;;;;;20578792;28;20300;-48
2022/03/08 16:06:18;;;;;;;6.88;2.25;;;10.70;74.10;;;;;;20570739;28;20050;-47
2022/03/08 16:16:20;;;;;;;4.88;2.05;;;10.50;74.90;;;;;;20585720;28;20045;-48
2022/03/08 16:26:21;;;;;;;6.40;1.83;;;10.50;74.50;;;;;;20599904;28;20039;-48
2022/03/08 16:36:23;;;;;;;5.53;2.25;;;10.30;75.90;;;;;;20570306;28;20054;-48
2022/03/08 16:46:24;;;;;;;7.00;1.95;;;10.10;76.40;;;;;;20581553;28;20042;-48
2022/03/08 16:56:25;;;;;;;4.47;2.20;;;10.20;76.80;;;;;;20578553;28;20047;-48
2022/03/08 17:06:26;;;;;;;4.20;1.90;;;10.00;76.90;;;;;;20584042;28;20109;-48
2022/03/08 17:16:28;;;;;;;5.70;2.47;;;9.90;77.60;;;;;;20565676;28;20482;-48
2022/03/08 17:26:30;;;;;;;5.93;2.47;;;9.80;78.30;;;;;;20568302;28;20053;-48
2022/03/08 17:36:31;;;;;;;5.60;2.05;;;9.70;78.80;;;;;;20554504;28;20050;-47
2022/03/08 17:46:32;;;;;;;5.95;2.40;;;9.40;80.00;;;;;;20541167;28;20047;-47
2022/03/08 17:56:33;;;;;;;6.88;2.97;;;9.30;81.10;;;;;;20566094;28;20042;-47
2022/03/08 18:06:36;;;;;;;5.50;2.47;;;9.30;81.70;;;;;;20531177;28;20062;-47
2022/03/08 18:16:37;;;;;;;6.45;1.95;;;9.10;82.50;;;;;;20526091;28;21123;-48
2022/03/08 18:26:39;;;;;;;6.00;2.38;;;9.00;82.00;;;;;;20489583;28;20049;-47
2022/03/08 18:36:40;;;;;;;5.32;2.33;;;8.80;81.90;;;;;;20516282;28;20431;-47
2022/03/08 18:46:41;;;;;;;6.63;1.90;;;8.80;81.60;;;;;;20537660;28;20050;-48
2022/03/08 18:56:42;;;;;;;4.00;1.73;;;8.70;81.80;;;;;;20514628;28;20043;-48
2022/03/08 19:06:44;;;;;;;5.88;2.22;;;8.60;82.50;;;;;;20495250;28;20047;-48
2022/03/08 19:16:45;;;;;;;7.00;2.60;;;8.40;83.40;;;;;;20497624;28;20030;-48
2022/03/08 19:26:46;;;;;;;6.35;2.53;;;8.30;84.00;;;;;;20518978;28;20495;-47
2022/03/08 19:36:47;;;;;;;5.00;2.00;;;8.20;85.10;;;;;;20519889;28;20538;-47
2022/03/08 19:46:49;;;;;;;8.13;3.17;;;8.00;85.50;;;;;;20498091;28;20565;-47
2022/03/08 19:56:50;;;;;;;7.15;2.53;;;7.90;85.50;;;;;;20506033;28;20568;-48
2022/03/08 20:06:54;;;;;;;7.20;3.25;;;7.80;86.40;;;;;;20466514;28;20051;-47
2022/03/08 20:16:56;;;;;;;4.20;2.05;;;7.70;87.50;;;;;;20508532;28;20423;-48
2022/03/08 20:26:57;;;;;;;8.52;2.40;;;7.60;87.90;;;;;;20500743;28;20631;-49
2022/03/08 20:36:58;;;;;;;7.72;2.47;;;7.50;87.30;;;;;;20523785;28;20049;-47
2022/03/08 20:46:59;;;;;;;5.93;2.47;;;7.40;87.90;;;;;;20625179;28;20226;-47
2022/03/08 20:57:02;;;;;;;4.78;2.53;;;7.20;89.30;;;;;;20602734;28;20037;-47
2022/03/08 21:07:03;;;;;;;7.60;2.33;;;7.10;89.20;;;;;;20601164;28;20058;-47
2022/03/08 21:17:05;;;;;;;8.63;2.50;;;7.00;89.90;;;;;;20620630;28;20721;-47
2022/03/08 21:27:06;;;;;;;9.43;3.30;;;6.90;90.10;;;;;;20623381;28;20042;-47
2022/03/08 21:37:07;;;;;;;7.35;2.35;;;6.80;90.10;;;;;;20602676;28;20043;-47
2022/03/08 21:47:08;;;;;;;7.00;2.80;;;6.60;90.50;;;;;;20555320;28;20537;-47
2022/03/08 21:57:09;;;;;;;7.88;3.42;;;6.60;90.50;;;;;;20543858;28;20046;-47
2022/03/08 22:07:10;;;;;;;5.47;2.42;;;6.50;90.60;;;;;;20566057;28;20047;-47
2022/03/08 22:17:11;;;;;;;7.65;3.38;;;6.40;90.90;;;;;;20498770;28;20038;-47
2022/03/08 22:27:12;;;;;;;10.48;4.43;;;6.30;91.80;;;;;;20476540;28;20688;-47
2022/03/08 22:37:14;;;;;;;9.73;4.00;;;6.30;91.20;;;;;;20486767;28;20054;-47
2022/03/08 22:47:15;;;;;;;7.65;2.75;;;6.10;91.60;;;;;;20599128;28;20107;-47
2022/03/08 22:57:16;;;;;;;9.18;3.28;;;6.10;92.20;;;;;;20568663;28;20054;-47
2022/03/08 23:07:17;;;;;;;7.55;2.75;;;6.00;92.10;;;;;;20576566;28;20046;-47
2022/03/08 23:17:22;;;;;;;4.80;2.63;;;5.80;92.60;;;;;;20588000;28;20039;-47
2022/03/08 23:27:24;;;;;;;5.32;2.30;;;5.70;93.30;;;;;;20628858;28;20294;-47
2022/03/08 23:37:25;;;;;;;11.68;3.45;;;5.70;93.00;;;;;;20620890;28;20069;-47
2022/03/08 23:47:27;;;;;;;5.15;2.70;;;5.60;93.20;;;;;;20589372;28;20068;-47
2022/03/08 23:57:28;;;;;;;8.07;3.17;;;5.50;94.00;;;;;;20606360;28;20035;-46
